Time;durP1;ratioP1;P1;durP2;ratioP2;P2;SDS_P1;SDS_P2;PMS_P1;PMS_P2;Temp;Humidity;BMP_temperature;BMP_pressure;BME280_temperature;BME280_humidity;BME280_pressure;Samples;Min_cycle;Max_cycle;Signal;HPM_P1;HPM_P2
2023/08/05 00:01:30;;;;;;;;;8.20;7.80;;;;;24.64;100.00;98257.50;6042488;28;96857;-62
2023/08/05 00:04:34;;;;;;;;;9.00;9.00;;;;;24.58;100.00;98249.44;6041467;28;96659;-62
2023/08/05 00:07:37;;;;;;;;;9.50;9.50;;;;;24.59;100.00;98244.72;6045014;28;96376;-62
2023/08/05 00:10:44;;;;;;;;;10.00;9.25;;;;;24.49;100.00;98253.34;6044637;28;96522;-62
2023/08/05 00:13:47;;;;;;;;;6.60;6.00;;;;;24.44;100.00;98250.75;6029239;28;96788;-62
2023/08/05 00:16:51;;;;;;;;;8.00;8.00;;;;;24.42;100.00;98255.81;6024854;28;96760;-62
2023/08/05 00:19:54;;;;;;;;;8.00;8.00;;;;;24.37;100.00;98223.72;6043098;28;96415;-62
2023/08/05 00:22:58;;;;;;;;;7.00;7.00;;;;;24.36;100.00;98224.03;6044318;28;96311;-62
2023/08/05 00:26:02;;;;;;;;;8.00;8.00;;;;;24.27;100.00;98209.47;6043641;28;96828;-62
2023/08/05 00:29:05;;;;;;;;;8.00;6.00;;;;;24.29;100.00;98204.47;6041810;28;96862;-62
2023/08/05 00:32:08;;;;;;;;;8.00;7.00;;;;;24.31;100.00;98193.91;6044202;28;96294;-62
2023/08/05 00:35:12;;;;;;;;;9.20;9.00;;;;;24.32;100.00;98190.84;6042899;28;96641;-63
2023/08/05 00:38:15;;;;;;;;;6.00;6.00;;;;;24.27;100.00;98195.72;6044144;28;96846;-62
2023/08/05 00:41:19;;;;;;;;;9.40;9.00;;;;;24.28;100.00;98206.41;6038664;28;96938;-62
2023/08/05 00:44:23;;;;;;;;;10.20;9.60;;;;;24.26;100.00;98221.63;6026169;28;96835;-63
2023/08/05 00:47:28;;;;;;;;;9.00;8.00;;;;;24.26;100.00;98216.94;6024672;28;96722;-62
2023/08/05 00:50:33;;;;;;;;;8.00;7.00;;;;;24.27;100.00;98207.53;6058018;28;97047;-62
2023/08/05 00:53:37;;;;;;;;;9.40;8.60;;;;;24.27;100.00;98187.44;6042871;28;96574;-62
2023/08/05 00:56:42;;;;;;;;;9.00;8.60;;;;;24.29;100.00;98193.44;6058481;28;96409;-62
2023/08/05 00:59:45;;;;;;;;;7.00;6.60;;;;;24.31;100.00;98182.91;6044111;28;96311;-62
2023/08/05 01:02:49;;;;;;;;;7.60;7.00;;;;;24.33;100.00;98184.19;6043887;28;97069;-62
2023/08/05 01:05:55;;;;;;;;;7.80;6.80;;;;;24.36;100.00;98196.50;6043946;28;96383;-63
2023/08/05 01:08:58;;;;;;;;;10.00;9.00;;;;;24.36;100.00;98197.31;6043805;28;96304;-62
2023/08/05 01:12:03;;;;;;;;;5.00;5.00;;;;;24.22;100.00;98213.22;6043961;28;96482;-63
2023/08/05 01:15:07;;;;;;;;;8.00;7.00;;;;;24.25;100.00;98222.75;6039181;28;96848;-62
2023/08/05 01:18:16;;;;;;;;;8.00;7.00;;;;;24.26;100.00;98218.88;6041509;28;97977;-63
2023/08/05 01:21:28;;;;;;;;;6.20;6.00;;;;;24.22;100.00;98204.16;6041563;28;96407;-62
2023/08/05 01:24:37;;;;;;;;;7.00;7.00;;;;;24.29;100.00;98209.97;6019107;28;99211;-62
2023/08/05 01:27:43;;;;;;;;;7.00;7.00;;;;;24.26;100.00;98205.09;6041902;28;96757;-62
2023/08/05 01:30:48;;;;;;;;;9.50;9.00;;;;;24.30;100.00;98214.31;6025266;28;96899;-62
2023/08/05 01:33:53;;;;;;;;;6.60;6.00;;;;;24.28;100.00;98222.13;6042893;28;96306;-62
2023/08/05 01:36:56;;;;;;;;;5.60;5.00;;;;;24.28;100.00;98231.19;6024422;28;96740;-62
2023/08/05 01:39:59;;;;;;;;;9.00;8.00;;;;;24.25;100.00;98236.53;6041211;28;99029;-62
2023/08/05 01:43:04;;;;;;;;;7.00;7.00;;;;;24.23;100.00;98222.28;6057031;28;96715;-62
2023/08/05 01:46:10;;;;;;;;;6.60;6.00;;;;;24.25;100.00;98229.09;6025437;28;96857;-63
2023/08/05 01:49:14;;;;;;;;;7.25;6.50;;;;;24.25;100.00;98220.00;6040741;28;97683;-62
2023/08/05 01:52:17;;;;;;;;;10.00;8.80;;;;;24.24;100.00;98204.66;6024679;28;97022;-63
2023/08/05 01:55:22;;;;;;;;;7.33;7.00;;;;;24.21;100.00;98202.53;6042406;28;96618;-63
2023/08/05 01:58:27;;;;;;;;;5.75;5.00;;;;;24.17;100.00;98208.69;6033907;28;96545;-63
2023/08/05 02:01:48;;;;;;;;;7.00;6.00;;;;;24.14;100.00;98192.78;6030392;28;96778;-63
2023/08/05 02:04:51;;;;;;;;;6.00;6.00;;;;;24.11;100.00;98179.66;6061183;28;96986;-62
2023/08/05 02:07:55;;;;;;;;;9.00;7.00;;;;;24.10;100.00;98194.56;6046782;28;96531;-62
2023/08/05 02:10:58;;;;;;;;;8.00;7.40;;;;;24.09;100.00;98208.69;6061264;28;96340;-62
2023/08/05 02:14:03;;;;;;;;;7.00;7.00;;;;;24.07;100.00;98216.44;6046841;28;96315;-63
2023/08/05 02:17:07;;;;;;;;;5.40;5.40;;;;;24.03;100.00;98219.06;6046627;28;96400;-62
2023/08/05 02:20:11;;;;;;;;;8.00;7.00;;;;;24.01;100.00;98215.00;6046144;28;96313;-62
2023/08/05 02:23:15;;;;;;;;;7.00;7.00;;;;;23.97;100.00;98214.84;6046163;28;96635;-63
2023/08/05 02:26:18;;;;;;;;;5.25;5.25;;;;;23.95;100.00;98216.28;6042061;28;96401;-63
2023/08/05 02:29:23;;;;;;;;;8.00;7.80;;;;;23.93;100.00;98216.63;6048235;28;97021;-63
2023/08/05 02:32:26;;;;;;;;;5.60;5.00;;;;;23.93;100.00;98208.38;6029078;28;97514;-63
2023/08/05 02:35:29;;;;;;;;;6.00;5.00;;;;;23.91;100.00;98210.63;6029411;28;97324;-62
2023/08/05 02:38:33;;;;;;;;;6.80;6.80;;;;;23.90;100.00;98219.22;6028516;28;96770;-62
2023/08/05 02:41:36;;;;;;;;;9.00;8.40;;;;;23.85;100.00;98220.19;6052298;28;96968;-63
2023/08/05 02:44:41;;;;;;;;;5.50;5.00;;;;;23.88;100.00;98213.22;6045959;28;96556;-62
2023/08/05 02:47:44;;;;;;;;;6.00;6.00;;;;;23.88;100.00;98202.22;6059808;28;96867;-63
2023/08/05 02:50:47;;;;;;;;;7.00;6.00;;;;;23.84;100.00;98188.31;6027887;28;98644;-62
2023/08/05 02:53:50;;;;;;;;;6.00;6.00;;;;;23.84;100.00;98190.25;6044669;28;96336;-63
2023/08/05 02:56:53;;;;;;;;;7.00;6.00;;;;;23.83;100.00;98183.13;6058758;28;96411;-62
2023/08/05 02:59:58;;;;;;;;;5.60;5.60;;;;;23.80;100.00;98176.31;6045193;28;96341;-62
2023/08/05 03:03:01;;;;;;;;;7.00;7.00;;;;;23.78;100.00;98177.78;6044022;28;96380;-62
2023/08/05 03:06:05;;;;;;;;;8.00;6.00;;;;;23.73;100.00;98173.25;6045246;28;96475;-62
2023/08/05 03:09:09;;;;;;;;;6.00;6.00;;;;;23.70;100.00;98185.69;6043917;28;98433;-62
2023/08/05 03:12:12;;;;;;;;;5.00;5.00;;;;;23.63;100.00;98193.66;6043939;28;97556;-63
2023/08/05 03:15:17;;;;;;;;;6.60;6.60;;;;;23.59;100.00;98219.38;6027473;28;99065;-62
2023/08/05 03:18:21;;;;;;;;;4.00;3.40;;;;;23.55;100.00;98262.44;6059811;28;96935;-62
2023/08/05 03:21:25;;;;;;;;;7.20;7.20;;;;;23.41;100.00;98323.03;6028040;28;97207;-62
2023/08/05 03:24:28;;;;;;;;;7.00;7.00;;;;;23.29;100.00;98284.34;6027943;28;96695;-63
2023/08/05 03:27:32;;;;;;;;;8.25;7.25;;;;;23.33;100.00;98227.56;6059523;28;96288;-62
2023/08/05 03:30:39;;;;;;;;;9.20;9.20;;;;;23.09;100.00;98268.41;6050772;28;96306;-62
2023/08/05 03:33:48;;;;;;;;;9.75;8.75;;;;;22.92;100.00;98299.38;6022160;28;96762;-62
2023/08/05 03:36:52;;;;;;;;;8.80;8.20;;;;;22.88;100.00;98290.16;6043096;28;96473;-61
2023/08/05 03:39:56;;;;;;;;;9.40;8.40;;;;;22.91;100.00;98264.00;6044609;28;97123;-62
2023/08/05 03:42:59;;;;;;;;;8.00;7.80;;;;;22.96;100.00;98286.66;6044108;28;96441;-62
2023/08/05 03:46:04;;;;;;;;;12.60;10.00;;;;;22.96;100.00;98310.59;6058856;28;96351;-62
2023/08/05 03:49:07;;;;;;;;;8.00;7.25;;;;;22.81;100.00;98331.03;6044585;28;96891;-62
2023/08/05 03:52:11;;;;;;;;;9.00;9.00;;;;;22.79;100.00;98344.28;6048729;28;96200;-62
2023/08/05 03:55:14;;;;;;;;;10.00;9.50;;;;;22.78;100.00;98329.72;6044779;28;96844;-62
2023/08/05 03:58:19;;;;;;;;;11.00;10.00;;;;;22.80;100.00;98316.50;6058975;28;96650;-62
2023/08/05 04:01:29;;;;;;;;;10.20;8.20;;;;;22.84;100.00;98269.94;6042646;28;96336;-62
2023/08/05 04:04:32;;;;;;;;;10.50;9.00;;;;;22.86;100.00;98268.50;6033848;28;96394;-62
2023/08/05 04:07:36;;;;;;;;;9.40;8.00;;;;;22.89;100.00;98289.84;6042251;28;96727;-62
2023/08/05 04:10:40;;;;;;;;;10.00;9.00;;;;;22.89;100.00;98294.53;6030597;28;98722;-62
2023/08/05 04:13:45;;;;;;;;;9.40;9.00;;;;;22.85;100.00;98288.06;6046039;28;96673;-62
2023/08/05 04:16:51;;;;;;;;;9.00;9.00;;;;;22.86;100.00;98263.00;6047656;28;97026;-62
2023/08/05 04:19:55;;;;;;;;;8.00;8.00;;;;;22.87;100.00;98258.31;6044441;28;96403;-62
2023/08/05 04:22:59;;;;;;;;;12.40;10.40;;;;;22.90;100.00;98263.19;6042152;28;96585;-62
2023/08/05 04:26:04;;;;;;;;;8.60;8.60;;;;;22.88;100.00;98240.69;6043890;28;96968;-63
2023/08/05 04:29:09;;;;;;;;;8.80;8.80;;;;;22.90;100.00;98227.44;6050546;28;96643;-61
2023/08/05 04:32:14;;;;;;;;;8.00;7.00;;;;;22.83;100.00;98227.91;6052538;28;96940;-62
2023/08/05 04:35:17;;;;;;;;;6.00;6.00;;;;;22.76;100.00;98222.06;6024431;28;98621;-62
2023/08/05 04:38:21;;;;;;;;;7.60;7.00;;;;;22.66;100.00;98216.00;6044468;28;96548;-62
2023/08/05 04:41:24;;;;;;;;;11.20;10.60;;;;;22.60;100.00;98203.53;6033190;28;97020;-62
2023/08/05 04:44:28;;;;;;;;;10.40;10.00;;;;;22.55;100.00;98187.19;6043339;28;96554;-62
2023/08/05 04:47:32;;;;;;;;;8.00;8.00;;;;;22.54;100.00;98178.13;6049939;28;96531;-62
2023/08/05 04:50:37;;;;;;;;;9.00;9.00;;;;;22.57;100.00;98190.44;6047302;28;96885;-61
2023/08/05 04:53:40;;;;;;;;;11.00;10.60;;;;;22.56;100.00;98202.53;6047401;28;96523;-61
2023/08/05 04:56:43;;;;;;;;;10.00;9.33;;;;;22.54;100.00;98205.59;6034149;28;96718;-62
2023/08/05 04:59:48;;;;;;;;;13.60;11.60;;;;;22.50;100.00;98226.59;6038118;28;96764;-62
2023/08/05 05:02:53;;;;;;;;;10.00;10.00;;;;;22.52;100.00;98229.03;6041315;28;96486;-62
2023/08/05 05:05:56;;;;;;;;;9.00;8.00;;;;;22.49;100.00;98213.97;6042832;28;96594;-62
2023/08/05 05:08:59;;;;;;;;;12.00;10.00;;;;;22.43;100.00;98202.31;6041548;28;96796;-62
2023/08/05 05:12:03;;;;;;;;;10.80;9.80;;;;;22.41;100.00;98221.06;6040065;28;96935;-62
2023/08/05 05:15:07;;;;;;;;;12.40;10.40;;;;;22.28;100.00;98232.13;6046320;28;96591;-62
2023/08/05 05:18:11;;;;;;;;;9.00;9.00;;;;;22.21;100.00;98193.31;6043000;28;97610;-62
2023/08/05 05:21:14;;;;;;;;;9.50;9.50;;;;;22.25;100.00;98167.66;6025427;28;97062;-62
2023/08/05 05:24:18;;;;;;;;;8.60;8.00;;;;;22.24;100.00;98170.69;6040449;28;96411;-62
2023/08/05 05:27:21;;;;;;;;;10.00;9.00;;;;;22.29;100.00;98193.34;6023586;28;97295;-62
2023/08/05 05:30:24;;;;;;;;;11.00;9.00;;;;;22.30;100.00;98177.69;6044682;28;96320;-62
2023/08/05 05:33:29;;;;;;;;;8.00;7.00;;;;;22.26;100.00;98172.03;6014149;29;96542;-62
2023/08/05 05:36:32;;;;;;;;;8.20;8.00;;;;;22.21;100.00;98165.84;6016900;28;96665;-62
2023/08/05 05:39:35;;;;;;;;;6.00;6.00;;;;;22.21;100.00;98161.16;6001581;29;99267;-62
2023/08/05 05:42:39;;;;;;;;;8.00;7.60;;;;;22.23;100.00;98152.63;6015065;28;96449;-61
2023/08/05 05:45:42;;;;;;;;;9.00;7.00;;;;;22.23;100.00;98152.63;6016173;29;97596;-62
2023/08/05 05:48:49;;;;;;;;;6.67;6.67;;;;;22.27;100.00;98148.94;6033020;28;97206;-61
2023/08/05 05:51:52;;;;;;;;;7.60;7.00;;;;;22.35;100.00;98147.34;6015149;29;99537;-62
2023/08/05 05:54:55;;;;;;;;;10.00;8.50;;;;;22.38;100.00;98117.31;6015045;29;96701;-61
2023/08/05 05:57:58;;;;;;;;;12.40;10.40;;;;;22.40;100.00;98089.53;6017839;28;96476;-61
2023/08/05 06:01:02;;;;;;;;;9.00;9.00;;;;;22.42;100.00;98033.19;6016143;28;97163;-62
2023/08/05 06:04:09;;;;;;;;;7.20;6.80;;;;;22.38;100.00;98001.19;6019190;28;97538;-62
2023/08/05 06:07:13;;;;;;;;;9.20;7.20;;;;;22.36;100.00;98050.09;6017776;28;96796;-62
2023/08/05 06:10:16;;;;;;;;;7.00;7.00;;;;;22.39;100.00;98044.78;6032715;28;96410;-61
2023/08/05 06:13:20;;;;;;;;;6.00;5.40;;;;;22.35;100.00;98030.06;6015271;28;96621;-62
2023/08/05 06:16:23;;;;;;;;;7.00;5.00;;;;;22.39;100.00;98039.28;6018385;29;96310;-63
2023/08/05 06:19:28;;;;;;;;;6.00;5.00;;;;;22.27;100.00;98068.50;6015742;29;98453;-62
2023/08/05 06:22:31;;;;;;;;;7.60;5.60;;;;;22.23;100.00;98087.53;6018204;29;96393;-62
2023/08/05 06:25:34;;;;;;;;;5.00;5.00;;;;;22.19;100.00;98133.22;6017411;29;96374;-61
2023/08/05 06:28:37;;;;;;;;;7.00;7.00;;;;;22.13;100.00;98139.16;6021494;28;96741;-62
2023/08/05 06:31:40;;;;;;;;;8.20;7.20;;;;;22.35;100.00;98174.81;6024835;28;96486;-62
2023/08/05 06:34:45;;;;;;;;;6.00;5.00;;;;;22.46;100.00;98196.19;6010619;28;96869;-62
2023/08/05 06:37:49;;;;;;;;;7.00;7.00;;;;;22.50;100.00;98223.84;6030861;28;96670;-62
2023/08/05 06:40:52;;;;;;;;;6.40;6.40;;;;;22.38;100.00;98227.16;6044256;28;98521;-62
2023/08/05 06:43:55;;;;;;;;;7.40;7.00;;;;;22.39;100.00;98212.31;6035769;28;96843;-61
2023/08/05 06:46:58;;;;;;;;;6.00;6.00;;;;;22.50;100.00;98201.06;6057619;28;97029;-62
2023/08/05 06:50:05;;;;;;;;;6.00;6.00;;;;;22.60;100.00;98167.81;6059465;28;96399;-63
2023/08/05 06:53:08;;;;;;;;;7.40;7.00;;;;;22.77;100.00;98126.69;6042573;28;98663;-62
2023/08/05 06:56:13;;;;;;;;;7.40;7.00;;;;;22.94;100.00;98098.44;6054400;28;96702;-62
2023/08/05 06:59:17;;;;;;;;;8.00;7.00;;;;;23.09;100.00;98062.22;6033141;28;97752;-62
2023/08/05 07:02:21;;;;;;;;;7.25;6.25;;;;;23.23;100.00;97977.63;6051354;28;96495;-62
2023/08/05 07:05:25;;;;;;;;;8.00;7.00;;;;;23.36;100.00;97901.56;6055979;28;96480;-62
2023/08/05 07:08:29;;;;;;;;;9.75;8.75;;;;;23.45;100.00;97837.16;6049339;28;96352;-62
2023/08/05 07:11:32;;;;;;;;;8.00;7.00;;;;;23.51;100.00;97774.50;6046521;28;96694;-62
2023/08/05 07:14:38;;;;;;;;;6.75;6.00;;;;;23.59;100.00;97726.88;6028168;28;98425;-62
2023/08/05 07:17:41;;;;;;;;;10.00;8.50;;;;;23.67;100.00;97742.50;6028557;28;96305;-62
2023/08/05 07:20:49;;;;;;;;;5.80;5.00;;;;;23.50;100.00;97778.41;6059714;28;96400;-61
2023/08/05 07:23:53;;;;;;;;;6.00;6.00;;;;;23.52;100.00;97829.19;6047078;28;97095;-62
2023/08/05 07:26:56;;;;;;;;;9.00;9.00;;;;;23.55;100.00;97838.75;6060725;28;97022;-62
2023/08/05 07:29:59;;;;;;;;;8.00;7.00;;;;;23.49;100.00;97845.56;6048510;28;98455;-63
2023/08/05 07:33:04;;;;;;;;;10.00;9.00;;;;;23.55;100.00;97871.75;6037037;28;96781;-62
2023/08/05 07:36:10;;;;;;;;;11.60;11.00;;;;;23.64;100.00;97880.75;6049093;28;97088;-62
2023/08/05 07:39:13;;;;;;;;;9.00;8.00;;;;;23.70;100.00;97905.00;6037922;28;96567;-62
2023/08/05 07:42:18;;;;;;;;;7.40;7.00;;;;;23.54;100.00;97914.16;6029606;28;98822;-62
2023/08/05 07:45:22;;;;;;;;;6.00;6.00;;;;;23.37;100.00;97922.41;6041347;28;97441;-63
2023/08/05 07:48:25;;;;;;;;;7.00;6.00;;;;;23.17;100.00;97956.91;6041221;28;96491;-62
2023/08/05 07:51:30;;;;;;;;;8.00;7.25;;;;;23.08;100.00;97956.13;6041396;28;97091;-62
2023/08/05 07:54:34;;;;;;;;;8.00;7.00;;;;;22.92;100.00;97963.28;6041645;28;96423;-63
2023/08/05 07:57:37;;;;;;;;;8.00;8.00;;;;;23.03;100.00;97981.03;6041370;28;97641;-62
2023/08/05 08:00:40;;;;;;;;;6.00;5.00;;;;;23.07;100.00;97991.06;6031179;28;98823;-62
2023/08/05 08:03:45;;;;;;;;;8.00;7.00;;;;;23.06;100.00;97991.41;6063819;28;96609;-63
2023/08/05 08:06:52;;;;;;;;;6.60;6.60;;;;;23.12;100.00;98009.31;6048566;28;96607;-62
2023/08/05 08:09:55;;;;;;;;;6.00;5.33;;;;;23.14;100.00;98018.88;6054497;28;97121;-62
2023/08/05 08:12:58;;;;;;;;;7.00;6.00;;;;;23.10;100.00;98017.91;6061735;28;97938;-62
2023/08/05 08:16:01;;;;;;;;;8.00;7.00;;;;;23.18;100.00;98017.09;6041188;28;97804;-62
2023/08/05 08:19:05;;;;;;;;;8.00;6.60;;;;;23.28;100.00;98019.50;6044092;28;96360;-62
2023/08/05 08:22:10;;;;;;;;;7.00;6.50;;;;;23.37;100.00;97996.69;6040983;28;96240;-62
2023/08/05 08:25:13;;;;;;;;;5.25;5.25;;;;;23.40;100.00;98004.28;6055443;28;96679;-62
2023/08/05 08:28:16;;;;;;;;;7.75;7.75;;;;;23.35;100.00;98010.78;6043833;28;96944;-62
2023/08/05 08:31:20;;;;;;;;;12.00;10.00;;;;;23.23;100.00;98007.88;6043765;28;96438;-62
2023/08/05 08:34:23;;;;;;;;;8.50;8.00;;;;;23.21;100.00;98008.19;6010887;29;98427;-63
2023/08/05 08:37:30;;;;;;;;;8.00;7.00;;;;;23.24;100.00;97996.56;6020842;29;96970;-63
2023/08/05 08:40:33;;;;;;;;;7.40;6.00;;;;;23.17;100.00;97990.72;6034992;28;96444;-62
2023/08/05 08:43:37;;;;;;;;;6.00;6.00;;;;;23.13;100.00;97986.19;6019496;28;96760;-62
2023/08/05 08:46:40;;;;;;;;;8.75;7.75;;;;;23.17;100.00;97989.91;6029008;28;96592;-63
2023/08/05 08:49:47;;;;;;;;;7.00;7.00;;;;;23.19;100.00;97971.97;6020543;28;96517;-62
2023/08/05 08:52:53;;;;;;;;;7.40;7.40;;;;;23.21;100.00;97931.19;6018934;28;98505;-62
2023/08/05 08:55:57;;;;;;;;;9.80;8.00;;;;;23.33;100.00;97947.03;6020014;29;96673;-63
2023/08/05 08:59:00;;;;;;;;;9.00;8.50;;;;;23.51;100.00;97931.28;6020202;29;96441;-62
2023/08/05 09:02:11;;;;;;;;;10.00;8.60;;;;;23.59;100.00;97949.75;6018833;28;96901;-63
2023/08/05 09:05:15;;;;;;;;;7.80;6.20;;;;;23.54;100.00;97945.22;6020296;28;96312;-62
2023/08/05 09:08:20;;;;;;;;;8.60;7.00;;;;;23.61;100.00;97941.94;6002848;29;96841;-62
2023/08/05 09:11:23;;;;;;;;;8.00;7.00;;;;;23.63;100.00;97950.69;6034113;28;96497;-62
2023/08/05 09:14:26;;;;;;;;;9.00;8.00;;;;;23.57;100.00;97944.56;6018338;29;98481;-63
2023/08/05 09:17:37;;;;;;;;;10.00;9.00;;;;;23.61;100.00;97933.69;6019174;28;96460;-62
2023/08/05 09:20:41;;;;;;;;;8.80;7.80;;;;;23.80;100.00;97916.78;6019722;29;96251;-63
2023/08/05 09:23:48;;;;;;;;;8.00;6.00;;;;;23.83;100.00;97914.19;6018704;28;99035;-63
2023/08/05 09:26:56;;;;;;;;;8.00;7.80;;;;;24.00;100.00;97916.03;6019973;29;96741;-62
2023/08/05 09:30:14;;;;;;;;;8.25;8.00;;;;;24.33;100.00;97907.94;6019688;28;96548;-62
2023/08/05 09:33:18;;;;;;;;;9.80;8.00;;;;;24.60;100.00;97910.13;6002591;29;99030;-62
2023/08/05 09:36:23;;;;;;;;;8.40;7.00;;;;;25.01;100.00;97890.81;6018101;29;97685;-63
2023/08/05 09:39:43;;;;;;;;;8.40;8.40;;;;;25.62;100.00;97881.88;6026573;28;96357;-63
2023/08/05 09:42:50;;;;;;;;;9.00;7.00;;;;;26.11;100.00;97868.84;6014491;29;96337;-63
2023/08/05 09:45:54;;;;;;;;;8.00;7.00;;;;;26.49;100.00;97863.72;6018644;29;96352;-63
2023/08/05 09:48:57;;;;;;;;;6.00;6.00;;;;;27.07;100.00;97869.75;6019436;29;96405;-63
2023/08/05 09:52:02;;;;;;;;;8.75;8.00;;;;;27.39;100.00;97874.13;6017852;29;98433;-63
2023/08/05 09:55:13;;;;;;;;;8.20;8.00;;;;;27.45;100.00;97875.50;6019610;29;96591;-63
2023/08/05 09:58:17;;;;;;;;;8.80;7.00;;;;;27.33;100.00;97903.22;6019426;29;96656;-63
2023/08/05 10:01:20;;;;;;;;;8.00;8.00;;;;;27.20;100.00;97910.00;6019534;29;96335;-63
2023/08/05 10:04:26;;;;;;;;;6.40;6.00;;;;;27.22;100.00;97917.97;6033786;28;96348;-64
2023/08/05 10:07:30;;;;;;;;;6.00;6.00;;;;;27.26;100.00;97902.25;6004412;29;96391;-63
2023/08/05 10:10:37;;;;;;;;;6.00;5.25;;;;;27.42;100.00;97891.97;6018910;29;97631;-64
2023/08/05 10:13:44;;;;;;;;;7.00;7.00;;;;;27.59;100.00;97872.31;6018252;28;96942;-63
2023/08/05 10:16:47;;;;;;;;;6.00;6.00;;;;;27.91;100.00;97871.09;6017317;29;96755;-64
2023/08/05 10:19:51;;;;;;;;;5.00;5.00;;;;;28.49;100.00;97864.91;6019777;28;96552;-64
2023/08/05 10:23:02;;;;;;;;;6.00;6.00;;;;;29.17;100.00;97862.34;6023139;29;96292;-64
2023/08/05 10:26:07;;;;;;;;;5.00;5.00;;;;;29.86;100.00;97863.94;6022279;29;96730;-65
2023/08/05 10:29:31;;;;;;;;;7.00;7.00;;;;;30.15;100.00;97881.09;6027769;28;96301;-65
2023/08/05 10:32:35;;;;;;;;;6.80;6.40;;;;;30.62;100.00;97875.81;6028102;28;96530;-64
2023/08/05 10:35:40;;;;;;;;;5.40;5.00;;;;;31.02;100.00;97872.34;6046608;28;96413;-64
2023/08/05 10:38:43;;;;;;;;;4.00;4.00;;;;;31.28;100.00;97874.19;6046244;28;96576;-65
2023/08/05 10:41:48;;;;;;;;;9.00;8.00;;;;;31.33;100.00;97880.22;6046693;28;96335;-64
2023/08/05 10:44:55;;;;;;;;;8.40;8.40;;;;;31.14;100.00;97876.84;6045608;28;96475;-64
2023/08/05 10:47:58;;;;;;;;;7.60;7.60;;;;;31.13;100.00;97869.69;6033443;28;96735;-64
2023/08/05 10:51:07;;;;;;;;;7.80;6.40;;;;;31.21;100.00;97846.31;6046469;28;96728;-64
2023/08/05 10:54:11;;;;;;;;;9.00;9.00;;;;;31.46;100.00;97849.31;6039073;28;98614;-64
2023/08/05 11:00:44;;;;;;;;;8.60;8.00;;;;;31.09;100.00;97868.84;6299464;27;96103;-63
2023/08/05 11:03:49;;;;;;;;;5.00;5.00;;;;;30.90;100.00;97864.22;6271460;27;96361;-63
2023/08/05 11:06:53;;;;;;;;;9.00;8.00;;;;;30.82;100.00;97860.56;6278859;27;96458;-64
2023/08/05 11:09:57;;;;;;;;;7.00;6.75;;;;;30.80;100.00;97857.34;6283934;27;96288;-64
2023/08/05 11:13:01;;;;;;;;;7.40;7.40;;;;;30.78;100.00;97862.50;6282467;27;97140;-64
2023/08/05 11:16:07;;;;;;;;;6.00;6.00;;;;;30.68;100.00;97870.72;6283896;27;96352;-64
2023/08/05 11:19:11;;;;;;;;;7.00;7.00;;;;;30.69;100.00;97850.06;6282513;27;96542;-64
2023/08/05 11:22:21;;;;;;;;;9.20;7.60;;;;;30.62;100.00;97848.00;6283764;27;96290;-63
2023/08/05 11:25:24;;;;;;;;;8.00;7.20;;;;;30.28;100.00;97863.00;6282672;27;96284;-63
2023/08/05 11:28:28;;;;;;;;;7.00;7.00;;;;;29.97;100.00;97859.38;6283819;27;96340;-63
2023/08/05 11:31:35;;;;;;;;;10.00;9.00;;;;;29.82;100.00;97862.28;6283851;27;96521;-63
2023/08/05 11:34:38;;;;;;;;;8.25;8.25;;;;;29.74;100.00;97852.22;6281847;27;96505;-63
2023/08/05 11:37:41;;;;;;;;;9.00;9.00;;;;;29.75;100.00;97845.50;6258609;27;96564;-63
2023/08/05 11:40:46;;;;;;;;;7.60;7.60;;;;;29.62;100.00;97847.66;6250566;27;98438;-63
2023/08/05 11:43:49;;;;;;;;;9.00;9.00;;;;;29.47;100.00;97846.63;6269978;27;96877;-63
2023/08/05 11:46:54;;;;;;;;;12.50;10.50;;;;;29.27;100.00;97837.53;6278340;27;96379;-63
2023/08/05 11:50:05;;;;;;;;;8.20;8.20;;;;;29.06;100.00;97817.75;6283343;27;96361;-63
2023/08/05 11:53:09;;;;;;;;;9.00;8.00;;;;;29.17;100.00;97810.41;6277605;27;97294;-64
2023/08/05 11:56:23;;;;;;;;;8.00;8.00;;;;;29.11;100.00;97827.72;6282594;27;97457;-63
2023/08/05 11:59:40;;;;;;;;;8.00;7.00;;;;;28.94;100.00;97815.13;6297562;27;96655;-63
2023/08/05 12:02:44;;;;;;;;;7.75;7.75;;;;;28.74;100.00;97813.53;6286310;27;98550;-62
2023/08/05 12:05:48;;;;;;;;;6.00;6.00;;;;;28.51;100.00;97809.88;6306812;27;96344;-63
2023/08/05 12:08:52;;;;;;;;;7.60;7.00;;;;;28.30;100.00;97799.97;6302575;27;96555;-64
2023/08/05 12:11:56;;;;;;;;;7.00;7.00;;;;;27.99;100.00;97800.88;6287140;27;96791;-65
2023/08/05 12:15:09;;;;;;;;;6.25;6.25;;;;;27.92;100.00;97792.38;6289881;27;96365;-63
2023/08/05 12:18:18;;;;;;;;;7.00;7.00;;;;;27.83;100.00;97797.31;6287662;27;96890;-63
2023/08/05 12:21:21;;;;;;;;;6.25;6.25;;;;;27.73;100.00;97791.53;6285227;27;96350;-63
2023/08/05 12:24:24;;;;;;;;;7.60;7.60;;;;;27.69;100.00;97785.13;6288609;27;96821;-64
2023/08/05 12:27:28;;;;;;;;;9.00;7.40;;;;;27.61;100.00;97773.09;6286919;27;96282;-63
2023/08/05 12:30:31;;;;;;;;;7.00;7.00;;;;;27.48;100.00;97777.88;6291540;27;96868;-64
2023/08/05 12:33:36;;;;;;;;;7.80;7.00;;;;;27.34;100.00;97774.78;6271819;27;97971;-64
2023/08/05 12:36:39;;;;;;;;;6.00;6.00;;;;;27.31;100.00;97771.94;6269621;27;96905;-63
2023/08/05 12:39:42;;;;;;;;;9.00;9.00;;;;;27.28;100.00;97767.09;6287689;27;96711;-64
2023/08/05 12:42:45;;;;;;;;;7.00;7.00;;;;;27.10;100.00;97770.22;6289921;27;96441;-64
2023/08/05 12:45:49;;;;;;;;;7.00;6.80;;;;;26.99;100.00;97777.44;6278180;27;96650;-64
2023/08/05 12:48:53;;;;;;;;;6.00;6.00;;;;;26.81;100.00;97784.44;6282857;27;96487;-64
2023/08/05 12:51:56;;;;;;;;;8.00;8.00;;;;;26.76;100.00;97784.69;6288805;27;96229;-64
2023/08/05 12:54:59;;;;;;;;;8.25;7.00;;;;;26.77;100.00;97799.34;6284488;27;96747;-64
2023/08/05 12:58:03;;;;;;;;;9.00;9.00;;;;;26.68;100.00;97802.28;6270699;27;97114;-64
2023/08/05 13:01:07;;;;;;;;;11.00;10.00;;;;;26.64;100.00;97788.31;6252610;27;97895;-63
2023/08/05 13:04:11;;;;;;;;;8.00;8.00;;;;;26.60;100.00;97786.63;6287465;27;97558;-64
2023/08/05 13:07:14;;;;;;;;;9.00;7.75;;;;;26.60;100.00;97781.91;6289035;27;97137;-63
2023/08/05 13:10:18;;;;;;;;;7.00;6.40;;;;;26.62;100.00;97785.13;6283688;27;98629;-64
2023/08/05 13:13:21;;;;;;;;;9.50;9.00;;;;;26.59;100.00;97773.94;6288941;27;96336;-64
2023/08/05 13:16:24;;;;;;;;;10.00;9.00;;;;;26.59;100.00;97773.94;6268391;27;97674;-64
2023/08/05 13:19:29;;;;;;;;;7.60;7.00;;;;;26.56;100.00;97789.28;6287169;27;96375;-63
2023/08/05 13:22:32;;;;;;;;;9.40;8.40;;;;;26.52;100.00;97779.31;6284804;27;96518;-64
2023/08/05 13:25:35;;;;;;;;;7.00;7.00;;;;;26.61;100.00;97783.50;6285258;27;96918;-64
2023/08/05 13:28:38;;;;;;;;;5.80;5.80;;;;;26.47;100.00;97783.13;6274653;27;96690;-63
2023/08/05 13:31:42;;;;;;;;;6.00;5.00;;;;;26.45;100.00;97779.91;6289214;27;96570;-63
2023/08/05 13:34:47;;;;;;;;;7.00;7.00;;;;;26.42;100.00;97788.09;6266604;27;96517;-63
2023/08/05 13:37:50;;;;;;;;;10.00;8.00;;;;;26.43;100.00;97785.00;6262985;27;97166;-65
2023/08/05 13:40:54;;;;;;;;;9.50;9.00;;;;;26.51;100.00;97783.22;6263592;27;96759;-64
2023/08/05 13:43:57;;;;;;;;;8.00;7.25;;;;;26.56;100.00;97783.78;6270060;27;97675;-63
2023/08/05 13:47:01;;;;;;;;;11.00;9.80;;;;;26.65;100.00;97781.66;6288935;27;96750;-63
2023/08/05 13:50:07;;;;;;;;;8.00;7.40;;;;;26.71;100.00;97777.47;6288083;27;96416;-63
2023/08/05 13:53:11;;;;;;;;;27.40;24.00;;;;;26.73;100.00;97786.19;6287575;27;96573;-62
2023/08/05 13:56:14;;;;;;;;;8.75;8.25;;;;;26.76;100.00;97776.41;6287125;27;96461;-64
2023/08/05 13:59:17;;;;;;;;;10.00;9.00;;;;;26.77;100.00;97779.97;6286609;27;96842;-63
2023/08/05 14:02:20;;;;;;;;;9.50;9.50;;;;;26.75;100.00;97788.63;6288733;27;96922;-64
2023/08/05 14:05:25;;;;;;;;;10.00;10.00;;;;;26.79;100.00;97781.22;6286766;27;96489;-64
2023/08/05 14:08:29;;;;;;;;;7.60;6.00;;;;;26.80;100.00;97784.78;6286094;27;96758;-64
2023/08/05 14:11:32;;;;;;;;;5.50;5.25;;;;;26.81;100.00;97772.56;6269304;27;99108;-63
2023/08/05 14:14:35;;;;;;;;;7.80;7.80;;;;;26.79;100.00;97764.63;6269739;27;96379;-63
2023/08/05 14:17:39;;;;;;;;;10.00;9.00;;;;;26.78;100.00;97760.25;6269631;27;96603;-63
2023/08/05 14:20:43;;;;;;;;;8.00;7.00;;;;;26.76;100.00;97756.25;6288174;27;96419;-63